sensor_id;sensor_type;location;lat;lon;timestamp;temperature;humidity
5964;DHT22;69025;53.712;9.680;2023-04-09T00:01:03;20.40;70.80
5964;DHT22;69025;53.712;9.680;2023-04-09T00:03:29;20.30;70.70
5964;DHT22;69025;53.712;9.680;2023-04-09T00:05:54;20.40;70.80
5964;DHT22;69025;53.712;9.680;2023-04-09T00:08:20;20.40;70.80
5964;DHT22;69025;53.712;9.680;2023-04-09T00:10:48;20.40;70.80
5964;DHT22;69025;53.712;9.680;2023-04-09T00:13:14;20.40;70.80
5964;DHT22;69025;53.712;9.680;2023-04-09T00:15:40;20.30;70.70
5964;DHT22;69025;53.712;9.680;2023-04-09T00:18:06;20.40;70.80
5964;DHT22;69025;53.712;9.680;2023-04-09T00:20:31;20.40;70.80
5964;DHT22;69025;53.712;9.680;2023-04-09T00:22:57;20.40;70.80
5964;DHT22;69025;53.712;9.680;2023-04-09T00:25:23;20.40;70.80
5964;DHT22;69025;53.712;9.680;2023-04-09T00:27:48;20.30;70.80
5964;DHT22;69025;53.712;9.680;2023-04-09T00:30:14;20.40;70.80
5964;DHT22;69025;53.712;9.680;2023-04-09T00:32:40;20.40;70.80
5964;DHT22;69025;53.712;9.680;2023-04-09T00:35:06;20.40;70.80
5964;DHT22;69025;53.712;9.680;2023-04-09T00:37:32;20.40;70.80
5964;DHT22;69025;53.712;9.680;2023-04-09T00:39:58;20.40;70.80
5964;DHT22;69025;53.712;9.680;2023-04-09T00:42:23;20.40;70.80
5964;DHT22;69025;53.712;9.680;2023-04-09T00:44:50;20.30;70.80
5964;DHT22;69025;53.712;9.680;2023-04-09T00:47:16;20.40;70.80
5964;DHT22;69025;53.712;9.680;2023-04-09T00:49:42;20.30;70.70
5964;DHT22;69025;53.712;9.680;2023-04-09T00:52:09;20.40;70.90
5964;DHT22;69025;53.712;9.680;2023-04-09T00:54:35;20.40;70.80
5964;DHT22;69025;53.712;9.680;2023-04-09T00:57:00;20.30;70.70
5964;DHT22;69025;53.712;9.680;2023-04-09T00:59:26;20.30;70.70
5964;DHT22;69025;53.712;9.680;2023-04-09T01:01:53;20.40;70.90
5964;DHT22;69025;53.712;9.680;2023-04-09T01:04:19;20.30;70.70
5964;DHT22;69025;53.712;9.680;2023-04-09T01:06:51;20.30;70.80
5964;DHT22;69025;53.712;9.680;2023-04-09T01:09:27;20.30;70.00
5964;DHT22;69025;53.712;9.680;2023-04-09T01:14:53;20.30;71.60
5964;DHT22;69025;53.712;9.680;2023-04-09T01:17:32;20.30;70.70
5964;DHT22;69025;53.712;9.680;2023-04-09T01:20:12;20.30;70.70
5964;DHT22;69025;53.712;9.680;2023-04-09T01:28:17;20.30;70.80
5964;DHT22;69025;53.712;9.680;2023-04-09T01:30:49;20.30;70.70
5964;DHT22;69025;53.712;9.680;2023-04-09T01:33:17;20.30;70.70
5964;DHT22;69025;53.712;9.680;2023-04-09T01:35:45;20.30;70.70
5964;DHT22;69025;53.712;9.680;2023-04-09T01:38:13;20.30;70.80
5964;DHT22;69025;53.712;9.680;2023-04-09T01:40:39;20.30;70.70
5964;DHT22;69025;53.712;9.680;2023-04-09T01:43:06;20.30;70.80
5964;DHT22;69025;53.712;9.680;2023-04-09T01:45:32;20.30;70.80
5964;DHT22;69025;53.712;9.680;2023-04-09T01:47:58;20.30;70.80
5964;DHT22;69025;53.712;9.680;2023-04-09T01:50:24;20.30;70.80
5964;DHT22;69025;53.712;9.680;2023-04-09T01:52:50;20.30;70.80
5964;DHT22;69025;53.712;9.680;2023-04-09T01:55:16;20.30;70.70
5964;DHT22;69025;53.712;9.680;2023-04-09T01:57:42;20.30;70.80
5964;DHT22;69025;53.712;9.680;2023-04-09T02:00:08;20.30;70.80
5964;DHT22;69025;53.712;9.680;2023-04-09T02:02:40;20.30;70.70
5964;DHT22;69025;53.712;9.680;2023-04-09T02:05:09;20.30;70.80
5964;DHT22;69025;53.712;9.680;2023-04-09T02:07:44;20.30;70.70
5964;DHT22;69025;53.712;9.680;2023-04-09T02:10:12;20.30;70.80
5964;DHT22;69025;53.712;9.680;2023-04-09T02:12:41;20.30;71.70
5964;DHT22;69025;53.712;9.680;2023-04-09T02:15:09;20.30;70.70
5964;DHT22;69025;53.712;9.680;2023-04-09T02:17:35;20.30;70.70
5964;DHT22;69025;53.712;9.680;2023-04-09T02:20:01;20.30;70.80
5964;DHT22;69025;53.712;9.680;2023-04-09T02:22:26;20.30;70.70
5964;DHT22;69025;53.712;9.680;2023-04-09T02:24:52;20.30;70.80
5964;DHT22;69025;53.712;9.680;2023-04-09T02:27:17;20.30;70.80
5964;DHT22;69025;53.712;9.680;2023-04-09T02:29:43;20.30;70.80
5964;DHT22;69025;53.712;9.680;2023-04-09T02:32:08;20.30;70.80
5964;DHT22;69025;53.712;9.680;2023-04-09T02:34:34;20.30;70.80
5964;DHT22;69025;53.712;9.680;2023-04-09T02:37:00;20.30;70.80
5964;DHT22;69025;53.712;9.680;2023-04-09T02:39:25;20.30;70.80
5964;DHT22;69025;53.712;9.680;2023-04-09T02:41:52;20.30;70.80
5964;DHT22;69025;53.712;9.680;2023-04-09T02:44:17;20.20;70.70
5964;DHT22;69025;53.712;9.680;2023-04-09T02:46:45;20.30;70.80
5964;DHT22;69025;53.712;9.680;2023-04-09T02:49:10;20.30;70.90
5964;DHT22;69025;53.712;9.680;2023-04-09T02:51:36;20.30;70.80
5964;DHT22;69025;53.712;9.680;2023-04-09T02:54:02;20.30;70.80
5964;DHT22;69025;53.712;9.680;2023-04-09T02:56:28;20.20;70.70
5964;DHT22;69025;53.712;9.680;2023-04-09T02:58:54;20.30;70.80
5964;DHT22;69025;53.712;9.680;2023-04-09T03:01:20;20.30;70.80
5964;DHT22;69025;53.712;9.680;2023-04-09T03:03:46;20.20;70.70
5964;DHT22;69025;53.712;9.680;2023-04-09T03:06:11;20.20;70.70
5964;DHT22;69025;53.712;9.680;2023-04-09T03:08:37;20.30;70.80
5964;DHT22;69025;53.712;9.680;2023-04-09T03:11:03;20.30;70.80
5964;DHT22;69025;53.712;9.680;2023-04-09T03:13:28;20.20;70.70
5964;DHT22;69025;53.712;9.680;2023-04-09T03:15:54;20.20;70.70
5964;DHT22;69025;53.712;9.680;2023-04-09T03:18:20;20.10;70.60
5964;DHT22;69025;53.712;9.680;2023-04-09T03:20:45;20.20;70.70
5964;DHT22;69025;53.712;9.680;2023-04-09T03:23:15;20.30;70.80
5964;DHT22;69025;53.712;9.680;2023-04-09T03:25:40;20.30;70.80
5964;DHT22;69025;53.712;9.680;2023-04-09T03:28:06;20.20;70.70
5964;DHT22;69025;53.712;9.680;2023-04-09T03:30:32;20.20;70.70
5964;DHT22;69025;53.712;9.680;2023-04-09T03:32:57;20.20;70.70
5964;DHT22;69025;53.712;9.680;2023-04-09T03:35:24;20.20;70.60
5964;DHT22;69025;53.712;9.680;2023-04-09T03:37:49;20.30;70.80
5964;DHT22;69025;53.712;9.680;2023-04-09T03:40:15;20.30;70.80
5964;DHT22;69025;53.712;9.680;2023-04-09T03:42:41;20.20;70.70
5964;DHT22;69025;53.712;9.680;2023-04-09T03:45:07;20.20;70.70
5964;DHT22;69025;53.712;9.680;2023-04-09T03:47:33;20.20;70.80
5964;DHT22;69025;53.712;9.680;2023-04-09T03:49:59;20.20;70.70
5964;DHT22;69025;53.712;9.680;2023-04-09T03:52:24;20.20;70.70
5964;DHT22;69025;53.712;9.680;2023-04-09T03:54:50;20.20;70.70
5964;DHT22;69025;53.712;9.680;2023-04-09T03:57:15;20.30;70.80
5964;DHT22;69025;53.712;9.680;2023-04-09T03:59:41;20.20;70.70
5964;DHT22;69025;53.712;9.680;2023-04-09T04:02:07;20.20;70.70
5964;DHT22;69025;53.712;9.680;2023-04-09T04:04:32;20.20;70.80
5964;DHT22;69025;53.712;9.680;2023-04-09T04:06:58;21.30;71.80
5964;DHT22;69025;53.712;9.680;2023-04-09T04:09:23;20.20;71.60
5964;DHT22;69025;53.712;9.680;2023-04-09T04:11:49;20.20;70.70
5964;DHT22;69025;53.712;9.680;2023-04-09T04:14:15;20.20;70.70
5964;DHT22;69025;53.712;9.680;2023-04-09T04:16:40;20.20;70.70
5964;DHT22;69025;53.712;9.680;2023-04-09T04:19:06;20.20;70.70
5964;DHT22;69025;53.712;9.680;2023-04-09T04:21:32;20.20;70.70
5964;DHT22;69025;53.712;9.680;2023-04-09T04:23:57;20.20;70.70
5964;DHT22;69025;53.712;9.680;2023-04-09T04:26:23;20.20;70.70
5964;DHT22;69025;53.712;9.680;2023-04-09T04:28:49;20.20;70.70
5964;DHT22;69025;53.712;9.680;2023-04-09T04:31:14;20.30;70.70
5964;DHT22;69025;53.712;9.680;2023-04-09T04:33:41;20.20;70.70
5964;DHT22;69025;53.712;9.680;2023-04-09T04:36:11;20.20;70.60
5964;DHT22;69025;53.712;9.680;2023-04-09T04:38:38;20.20;70.70
5964;DHT22;69025;53.712;9.680;2023-04-09T04:41:04;20.20;70.70
5964;DHT22;69025;53.712;9.680;2023-04-09T04:43:30;20.20;70.70
5964;DHT22;69025;53.712;9.680;2023-04-09T04:45:57;20.20;70.70
5964;DHT22;69025;53.712;9.680;2023-04-09T04:48:22;20.10;70.60
5964;DHT22;69025;53.712;9.680;2023-04-09T04:50:56;20.20;70.70
5964;DHT22;69025;53.712;9.680;2023-04-09T04:53:21;20.10;70.50
5964;DHT22;69025;53.712;9.680;2023-04-09T04:55:47;20.20;70.70
5964;DHT22;69025;53.712;9.680;2023-04-09T04:58:13;20.20;70.70
5964;DHT22;69025;53.712;9.680;2023-04-09T05:00:38;20.20;70.70
5964;DHT22;69025;53.712;9.680;2023-04-09T05:03:04;20.20;70.70
5964;DHT22;69025;53.712;9.680;2023-04-09T05:05:30;20.10;70.60
5964;DHT22;69025;53.712;9.680;2023-04-09T05:07:56;20.20;70.70
5964;DHT22;69025;53.712;9.680;2023-04-09T05:10:21;20.20;70.60
5964;DHT22;69025;53.712;9.680;2023-04-09T05:12:47;20.20;70.70
5964;DHT22;69025;53.712;9.680;2023-04-09T05:15:12;20.20;70.70
5964;DHT22;69025;53.712;9.680;2023-04-09T05:17:42;20.20;70.70
5964;DHT22;69025;53.712;9.680;2023-04-09T05:20:08;20.10;70.60
5964;DHT22;69025;53.712;9.680;2023-04-09T05:22:34;20.20;70.70
5964;DHT22;69025;53.712;9.680;2023-04-09T05:25:00;20.10;70.50
5964;DHT22;69025;53.712;9.680;2023-04-09T05:27:26;20.30;70.80
5964;DHT22;69025;53.712;9.680;2023-04-09T05:29:52;20.20;70.70
5964;DHT22;69025;53.712;9.680;2023-04-09T05:32:18;20.20;70.70
5964;DHT22;69025;53.712;9.680;2023-04-09T05:34:44;20.20;70.60
5964;DHT22;69025;53.712;9.680;2023-04-09T05:37:09;20.20;70.70
5964;DHT22;69025;53.712;9.680;2023-04-09T05:39:35;20.10;70.60
5964;DHT22;69025;53.712;9.680;2023-04-09T05:42:01;20.20;70.80
5964;DHT22;69025;53.712;9.680;2023-04-09T05:44:26;20.20;70.70
5964;DHT22;69025;53.712;9.680;2023-04-09T05:46:52;20.20;70.60
5964;DHT22;69025;53.712;9.680;2023-04-09T05:49:18;20.20;70.70
5964;DHT22;69025;53.712;9.680;2023-04-09T05:51:43;20.20;70.70
5964;DHT22;69025;53.712;9.680;2023-04-09T05:54:09;20.20;70.70
5964;DHT22;69025;53.712;9.680;2023-04-09T05:56:35;20.20;70.70
5964;DHT22;69025;53.712;9.680;2023-04-09T05:59:00;20.20;70.70
5964;DHT22;69025;53.712;9.680;2023-04-09T06:01:26;20.10;70.60
5964;DHT22;69025;53.712;9.680;2023-04-09T06:03:52;20.20;70.70
5964;DHT22;69025;53.712;9.680;2023-04-09T06:06:17;20.20;70.70
5964;DHT22;69025;53.712;9.680;2023-04-09T06:08:43;20.20;70.60
5964;DHT22;69025;53.712;9.680;2023-04-09T06:11:10;20.20;70.70
5964;DHT22;69025;53.712;9.680;2023-04-09T06:13:36;20.10;70.60
5964;DHT22;69025;53.712;9.680;2023-04-09T06:16:08;20.10;70.60
5964;DHT22;69025;53.712;9.680;2023-04-09T06:18:35;20.20;70.70
5964;DHT22;69025;53.712;9.680;2023-04-09T06:23:27;20.20;70.60
5964;DHT22;69025;53.712;9.680;2023-04-09T06:25:53;20.20;71.50
5964;DHT22;69025;53.712;9.680;2023-04-09T06:28:18;20.20;70.70
5964;DHT22;69025;53.712;9.680;2023-04-09T06:30:44;20.10;70.60
5964;DHT22;69025;53.712;9.680;2023-04-09T06:33:11;20.10;70.60
5964;DHT22;69025;53.712;9.680;2023-04-09T06:35:36;20.20;70.70
5964;DHT22;69025;53.712;9.680;2023-04-09T06:38:02;20.20;70.70
5964;DHT22;69025;53.712;9.680;2023-04-09T06:40:27;20.10;70.60
5964;DHT22;69025;53.712;9.680;2023-04-09T06:42:53;20.20;71.50
5964;DHT22;69025;53.712;9.680;2023-04-09T06:45:19;20.20;70.60
5964;DHT22;69025;53.712;9.680;2023-04-09T06:47:44;20.20;70.70
5964;DHT22;69025;53.712;9.680;2023-04-09T06:50:10;20.20;70.60
5964;DHT22;69025;53.712;9.680;2023-04-09T06:52:35;20.20;70.70
5964;DHT22;69025;53.712;9.680;2023-04-09T06:55:01;20.20;70.60
5964;DHT22;69025;53.712;9.680;2023-04-09T06:57:27;20.20;70.70
5964;DHT22;69025;53.712;9.680;2023-04-09T06:59:52;20.20;70.70
5964;DHT22;69025;53.712;9.680;2023-04-09T07:02:18;20.10;70.60
5964;DHT22;69025;53.712;9.680;2023-04-09T07:04:43;20.20;70.70
5964;DHT22;69025;53.712;9.680;2023-04-09T07:07:09;20.20;70.60
5964;DHT22;69025;53.712;9.680;2023-04-09T07:09:35;20.20;70.60
5964;DHT22;69025;53.712;9.680;2023-04-09T07:12:01;20.20;70.60
5964;DHT22;69025;53.712;9.680;2023-04-09T07:14:26;20.10;70.50
5964;DHT22;69025;53.712;9.680;2023-04-09T07:16:52;20.20;71.50
5964;DHT22;69025;53.712;9.680;2023-04-09T07:19:17;20.20;70.70
5964;DHT22;69025;53.712;9.680;2023-04-09T07:21:43;20.20;70.60
5964;DHT22;69025;53.712;9.680;2023-04-09T07:24:09;20.20;70.60
5964;DHT22;69025;53.712;9.680;2023-04-09T07:26:35;20.20;70.70
5964;DHT22;69025;53.712;9.680;2023-04-09T07:29:00;20.20;70.60
5964;DHT22;69025;53.712;9.680;2023-04-09T07:31:28;20.20;70.60
5964;DHT22;69025;53.712;9.680;2023-04-09T07:33:53;20.20;70.70
5964;DHT22;69025;53.712;9.680;2023-04-09T07:36:19;20.20;70.70
5964;DHT22;69025;53.712;9.680;2023-04-09T07:38:45;20.10;70.50
5964;DHT22;69025;53.712;9.680;2023-04-09T07:41:10;20.10;70.50
5964;DHT22;69025;53.712;9.680;2023-04-09T07:43:36;20.20;70.70
5964;DHT22;69025;53.712;9.680;2023-04-09T07:46:01;20.10;70.50
5964;DHT22;69025;53.712;9.680;2023-04-09T07:48:27;20.10;70.50
5964;DHT22;69025;53.712;9.680;2023-04-09T07:50:53;20.20;70.60
5964;DHT22;69025;53.712;9.680;2023-04-09T07:53:18;20.20;70.70
5964;DHT22;69025;53.712;9.680;2023-04-09T07:55:44;20.20;70.60
5964;DHT22;69025;53.712;9.680;2023-04-09T07:58:10;20.10;70.50
5964;DHT22;69025;53.712;9.680;2023-04-09T08:00:36;20.20;70.60
5964;DHT22;69025;53.712;9.680;2023-04-09T08:03:01;20.10;70.50
5964;DHT22;69025;53.712;9.680;2023-04-09T08:05:28;20.20;70.60
5964;DHT22;69025;53.712;9.680;2023-04-09T08:07:53;20.20;70.60
5964;DHT22;69025;53.712;9.680;2023-04-09T08:10:19;20.10;70.60
5964;DHT22;69025;53.712;9.680;2023-04-09T08:12:47;20.10;70.60
5964;DHT22;69025;53.712;9.680;2023-04-09T08:15:12;20.10;70.60
5964;DHT22;69025;53.712;9.680;2023-04-09T08:17:38;20.10;70.60
5964;DHT22;69025;53.712;9.680;2023-04-09T08:20:04;20.20;70.80
5964;DHT22;69025;53.712;9.680;2023-04-09T08:22:30;20.10;70.60
5964;DHT22;69025;53.712;9.680;2023-04-09T08:24:56;20.10;70.60
5964;DHT22;69025;53.712;9.680;2023-04-09T08:27:23;20.10;70.60
5964;DHT22;69025;53.712;9.680;2023-04-09T08:29:49;20.10;70.60
5964;DHT22;69025;53.712;9.680;2023-04-09T08:32:14;20.10;70.60
5964;DHT22;69025;53.712;9.680;2023-04-09T08:34:40;20.20;70.70
5964;DHT22;69025;53.712;9.680;2023-04-09T08:37:06;20.20;70.70
5964;DHT22;69025;53.712;9.680;2023-04-09T08:39:32;20.20;70.70
5964;DHT22;69025;53.712;9.680;2023-04-09T08:41:58;20.20;70.70
5964;DHT22;69025;53.712;9.680;2023-04-09T08:44:26;20.10;70.60
5964;DHT22;69025;53.712;9.680;2023-04-09T08:46:51;20.20;70.60
5964;DHT22;69025;53.712;9.680;2023-04-09T08:49:18;20.20;70.60
5964;DHT22;69025;53.712;9.680;2023-04-09T08:51:46;20.20;70.60
5964;DHT22;69025;53.712;9.680;2023-04-09T08:54:14;20.20;70.60
5964;DHT22;69025;53.712;9.680;2023-04-09T08:56:40;20.20;70.60
5964;DHT22;69025;53.712;9.680;2023-04-09T08:59:06;20.20;70.60
5964;DHT22;69025;53.712;9.680;2023-04-09T09:01:32;20.20;70.60
5964;DHT22;69025;53.712;9.680;2023-04-09T09:04:05;20.20;70.60
5964;DHT22;69025;53.712;9.680;2023-04-09T09:06:38;20.20;70.60
5964;DHT22;69025;53.712;9.680;2023-04-09T09:09:16;20.20;70.50
5964;DHT22;69025;53.712;9.680;2023-04-09T09:11:46;20.20;70.60
5964;DHT22;69025;53.712;9.680;2023-04-09T09:14:17;20.20;70.50
5964;DHT22;69025;53.712;9.680;2023-04-09T09:17:02;20.20;70.60
5964;DHT22;69025;53.712;9.680;2023-04-09T09:19:30;20.20;70.60
5964;DHT22;69025;53.712;9.680;2023-04-09T09:22:02;20.20;70.50
5964;DHT22;69025;53.712;9.680;2023-04-09T09:24:29;20.20;70.60
5964;DHT22;69025;53.712;9.680;2023-04-09T09:26:54;20.20;70.50
5964;DHT22;69025;53.712;9.680;2023-04-09T09:29:21;20.20;70.60
5964;DHT22;69025;53.712;9.680;2023-04-09T09:31:49;20.20;70.60
5964;DHT22;69025;53.712;9.680;2023-04-09T09:34:16;20.20;70.50
5964;DHT22;69025;53.712;9.680;2023-04-09T09:36:41;20.20;70.60
5964;DHT22;69025;53.712;9.680;2023-04-09T09:39:08;20.20;70.60
5964;DHT22;69025;53.712;9.680;2023-04-09T09:41:38;20.30;70.70
5964;DHT22;69025;53.712;9.680;2023-04-09T09:44:05;20.20;70.50
5964;DHT22;69025;53.712;9.680;2023-04-09T09:46:37;20.20;70.60
5964;DHT22;69025;53.712;9.680;2023-04-09T09:49:03;20.20;70.60
5964;DHT22;69025;53.712;9.680;2023-04-09T09:51:31;20.20;70.60
5964;DHT22;69025;53.712;9.680;2023-04-09T09:53:57;20.20;70.60
5964;DHT22;69025;53.712;9.680;2023-04-09T09:56:31;20.20;70.60
5964;DHT22;69025;53.712;9.680;2023-04-09T10:01:45;20.10;70.40
5964;DHT22;69025;53.712;9.680;2023-04-09T10:04:13;20.20;70.50
5964;DHT22;69025;53.712;9.680;2023-04-09T10:06:43;20.20;70.50
5964;DHT22;69025;53.712;9.680;2023-04-09T10:09:09;20.20;70.50
5964;DHT22;69025;53.712;9.680;2023-04-09T10:11:36;20.20;70.50
5964;DHT22;69025;53.712;9.680;2023-04-09T10:14:02;20.20;70.50
5964;DHT22;69025;53.712;9.680;2023-04-09T10:16:29;20.10;70.40
5964;DHT22;69025;53.712;9.680;2023-04-09T10:18:56;20.20;70.50
5964;DHT22;69025;53.712;9.680;2023-04-09T10:21:31;20.20;70.50
5964;DHT22;69025;53.712;9.680;2023-04-09T10:24:00;20.20;70.50
5964;DHT22;69025;53.712;9.680;2023-04-09T10:26:32;20.20;70.50
5964;DHT22;69025;53.712;9.680;2023-04-09T10:29:09;20.20;70.50
5964;DHT22;69025;53.712;9.680;2023-04-09T10:31:53;20.20;70.50
5964;DHT22;69025;53.712;9.680;2023-04-09T10:34:22;20.20;70.50
5964;DHT22;69025;53.712;9.680;2023-04-09T10:36:52;20.20;70.50
5964;DHT22;69025;53.712;9.680;2023-04-09T10:39:19;20.20;70.50
5964;DHT22;69025;53.712;9.680;2023-04-09T10:41:47;20.20;70.50
5964;DHT22;69025;53.712;9.680;2023-04-09T10:44:27;20.20;70.50
5964;DHT22;69025;53.712;9.680;2023-04-09T10:46:53;20.20;70.50
5964;DHT22;69025;53.712;9.680;2023-04-09T10:49:21;20.20;70.50
5964;DHT22;69025;53.712;9.680;2023-04-09T10:59:40;20.20;70.50
5964;DHT22;69025;53.712;9.680;2023-04-09T11:02:08;20.20;70.50
5964;DHT22;69025;53.712;9.680;2023-04-09T11:04:46;20.20;70.50
5964;DHT22;69025;53.712;9.680;2023-04-09T11:07:16;20.20;70.50
5964;DHT22;69025;53.712;9.680;2023-04-09T11:09:43;20.20;70.50
5964;DHT22;69025;53.712;9.680;2023-04-09T11:12:10;20.30;70.60
5964;DHT22;69025;53.712;9.680;2023-04-09T11:14:36;20.20;70.50
5964;DHT22;69025;53.712;9.680;2023-04-09T11:17:04;20.30;70.60
5964;DHT22;69025;53.712;9.680;2023-04-09T11:19:32;20.30;70.60
5964;DHT22;69025;53.712;9.680;2023-04-09T11:21:58;20.20;69.70
5964;DHT22;69025;53.712;9.680;2023-04-09T11:24:24;20.20;70.50
5964;DHT22;69025;53.712;9.680;2023-04-09T11:26:50;20.20;70.50
5964;DHT22;69025;53.712;9.680;2023-04-09T11:29:15;20.30;70.60
5964;DHT22;69025;53.712;9.680;2023-04-09T11:31:43;20.20;70.50
5964;DHT22;69025;53.712;9.680;2023-04-09T11:34:10;20.10;70.40
5964;DHT22;69025;53.712;9.680;2023-04-09T11:36:39;20.20;70.40
5964;DHT22;69025;53.712;9.680;2023-04-09T11:39:05;20.20;70.50
5964;DHT22;69025;53.712;9.680;2023-04-09T11:41:35;20.20;70.50
5964;DHT22;69025;53.712;9.680;2023-04-09T11:44:02;20.20;70.50
5964;DHT22;69025;53.712;9.680;2023-04-09T11:46:30;20.20;70.50
5964;DHT22;69025;53.712;9.680;2023-04-09T11:48:57;20.30;70.60
5964;DHT22;69025;53.712;9.680;2023-04-09T11:51:23;20.20;70.50
5964;DHT22;69025;53.712;9.680;2023-04-09T11:53:51;20.30;69.80
5964;DHT22;69025;53.712;9.680;2023-04-09T11:56:17;20.20;70.50
5964;DHT22;69025;53.712;9.680;2023-04-09T11:58:47;20.30;69.80
5964;DHT22;69025;53.712;9.680;2023-04-09T12:01:13;20.30;69.80
5964;DHT22;69025;53.712;9.680;2023-04-09T12:03:39;20.30;69.80
5964;DHT22;69025;53.712;9.680;2023-04-09T12:06:06;20.30;69.80
5964;DHT22;69025;53.712;9.680;2023-04-09T12:08:35;20.30;69.80
5964;DHT22;69025;53.712;9.680;2023-04-09T12:11:11;20.20;69.70
5964;DHT22;69025;53.712;9.680;2023-04-09T12:13:37;20.30;70.50
5964;DHT22;69025;53.712;9.680;2023-04-09T12:16:07;20.30;69.80
5964;DHT22;69025;53.712;9.680;2023-04-09T12:18:38;20.40;70.60
5964;DHT22;69025;53.712;9.680;2023-04-09T12:21:04;20.30;69.80
5964;DHT22;69025;53.712;9.680;2023-04-09T12:23:31;20.30;69.80
5964;DHT22;69025;53.712;9.680;2023-04-09T12:25:57;20.40;69.90
5964;DHT22;69025;53.712;9.680;2023-04-09T12:28:26;20.40;69.90
5964;DHT22;69025;53.712;9.680;2023-04-09T12:30:52;20.30;69.80
5964;DHT22;69025;53.712;9.680;2023-04-09T12:33:18;20.40;69.90
5964;DHT22;69025;53.712;9.680;2023-04-09T12:35:44;20.40;70.60
5964;DHT22;69025;53.712;9.680;2023-04-09T12:38:10;20.40;70.60
5964;DHT22;69025;53.712;9.680;2023-04-09T12:40:36;20.40;69.90
5964;DHT22;69025;53.712;9.680;2023-04-09T12:43:02;20.40;69.90
5964;DHT22;69025;53.712;9.680;2023-04-09T12:45:28;20.40;70.00
5964;DHT22;69025;53.712;9.680;2023-04-09T12:47:54;20.40;69.90
5964;DHT22;69025;53.712;9.680;2023-04-09T12:50:20;20.30;70.60
5964;DHT22;69025;53.712;9.680;2023-04-09T12:52:46;20.40;69.90
5964;DHT22;69025;53.712;9.680;2023-04-09T12:55:12;20.40;69.90
5964;DHT22;69025;53.712;9.680;2023-04-09T12:57:40;20.50;70.00
5964;DHT22;69025;53.712;9.680;2023-04-09T13:00:07;20.40;69.90
5964;DHT22;69025;53.712;9.680;2023-04-09T13:02:32;20.40;69.90
5964;DHT22;69025;53.712;9.680;2023-04-09T13:04:58;20.40;70.00
5964;DHT22;69025;53.712;9.680;2023-04-09T13:07:24;20.40;70.70
5964;DHT22;69025;53.712;9.680;2023-04-09T13:09:54;20.50;70.90
5964;DHT22;69025;53.712;9.680;2023-04-09T13:12:20;20.40;70.10
5964;DHT22;69025;53.712;9.680;2023-04-09T13:14:46;20.40;70.80
5964;DHT22;69025;53.712;9.680;2023-04-09T13:17:13;20.40;70.10
5964;DHT22;69025;53.712;9.680;2023-04-09T13:19:39;20.40;70.10
5964;DHT22;69025;53.712;9.680;2023-04-09T13:22:05;20.40;70.80
5964;DHT22;69025;53.712;9.680;2023-04-09T13:24:36;20.40;70.90
5964;DHT22;69025;53.712;9.680;2023-04-09T13:27:05;20.40;70.20
5964;DHT22;69025;53.712;9.680;2023-04-09T13:29:34;20.40;70.30
5964;DHT22;69025;53.712;9.680;2023-04-09T13:31:59;20.40;71.10
5964;DHT22;69025;53.712;9.680;2023-04-09T13:34:31;20.40;70.30
5964;DHT22;69025;53.712;9.680;2023-04-09T13:36:56;20.40;71.00
5964;DHT22;69025;53.712;9.680;2023-04-09T13:39:22;20.40;71.00
5964;DHT22;69025;53.712;9.680;2023-04-09T13:41:48;20.50;70.40
5964;DHT22;69025;53.712;9.680;2023-04-09T13:44:13;20.50;70.40
5964;DHT22;69025;53.712;9.680;2023-04-09T13:46:39;20.40;71.00
5964;DHT22;69025;53.712;9.680;2023-04-09T13:49:04;20.50;70.40
5964;DHT22;69025;53.712;9.680;2023-04-09T13:51:30;20.50;70.40
5964;DHT22;69025;53.712;9.680;2023-04-09T13:53:56;20.50;71.20
5964;DHT22;69025;53.712;9.680;2023-04-09T13:56:22;20.60;70.50
5964;DHT22;69025;53.712;9.680;2023-04-09T13:58:47;20.60;70.60
5964;DHT22;69025;53.712;9.680;2023-04-09T14:01:13;20.60;71.30
5964;DHT22;69025;53.712;9.680;2023-04-09T14:03:39;20.60;71.30
5964;DHT22;69025;53.712;9.680;2023-04-09T14:06:06;20.60;71.30
5964;DHT22;69025;53.712;9.680;2023-04-09T14:08:33;20.60;72.20
5964;DHT22;69025;53.712;9.680;2023-04-09T14:10:59;20.70;70.60
5964;DHT22;69025;53.712;9.680;2023-04-09T14:13:24;20.70;70.60
5964;DHT22;69025;53.712;9.680;2023-04-09T14:15:50;20.70;70.60
5964;DHT22;69025;53.712;9.680;2023-04-09T14:18:16;20.70;71.30
5964;DHT22;69025;53.712;9.680;2023-04-09T14:20:41;20.70;70.60
5964;DHT22;69025;53.712;9.680;2023-04-09T14:23:07;20.70;71.30
5964;DHT22;69025;53.712;9.680;2023-04-09T14:25:32;20.70;71.30
5964;DHT22;69025;53.712;9.680;2023-04-09T14:27:58;20.80;70.70
5964;DHT22;69025;53.712;9.680;2023-04-09T14:30:24;20.80;70.60
5964;DHT22;69025;53.712;9.680;2023-04-09T14:32:49;20.80;70.70
5964;DHT22;69025;53.712;9.680;2023-04-09T14:35:15;20.80;71.40
5964;DHT22;69025;53.712;9.680;2023-04-09T14:37:40;20.80;70.70
5964;DHT22;69025;53.712;9.680;2023-04-09T14:40:07;20.80;70.60
5964;DHT22;69025;53.712;9.680;2023-04-09T14:42:33;20.90;71.50
5964;DHT22;69025;53.712;9.680;2023-04-09T14:44:58;20.90;71.50
5964;DHT22;69025;53.712;9.680;2023-04-09T14:47:24;20.80;71.40
5964;DHT22;69025;53.712;9.680;2023-04-09T14:49:50;20.90;70.80
5964;DHT22;69025;53.712;9.680;2023-04-09T14:52:16;20.90;71.50
5964;DHT22;69025;53.712;9.680;2023-04-09T14:54:41;20.90;71.50
5964;DHT22;69025;53.712;9.680;2023-04-09T14:57:07;21.00;71.60
5964;DHT22;69025;53.712;9.680;2023-04-09T14:59:33;21.00;71.50
5964;DHT22;69025;53.712;9.680;2023-04-09T15:01:59;21.00;71.60
5964;DHT22;69025;53.712;9.680;2023-04-09T15:04:24;21.00;71.60
5964;DHT22;69025;53.712;9.680;2023-04-09T15:06:50;21.00;71.60
5964;DHT22;69025;53.712;9.680;2023-04-09T15:09:16;21.00;71.60
5964;DHT22;69025;53.712;9.680;2023-04-09T15:11:42;21.00;71.60
5964;DHT22;69025;53.712;9.680;2023-04-09T15:14:08;21.10;71.70
5964;DHT22;69025;53.712;9.680;2023-04-09T15:16:33;21.00;71.60
5964;DHT22;69025;53.712;9.680;2023-04-09T15:22:42;21.10;71.70
5964;DHT22;69025;53.712;9.680;2023-04-09T15:25:08;21.10;71.80
5964;DHT22;69025;53.712;9.680;2023-04-09T15:27:34;21.10;71.70
5964;DHT22;69025;53.712;9.680;2023-04-09T15:29:59;21.10;71.80
5964;DHT22;69025;53.712;9.680;2023-04-09T15:32:25;21.10;71.80
5964;DHT22;69025;53.712;9.680;2023-04-09T15:34:50;21.20;71.90
5964;DHT22;69025;53.712;9.680;2023-04-09T15:37:16;21.10;71.80
5964;DHT22;69025;53.712;9.680;2023-04-09T15:39:42;21.10;71.80
5964;DHT22;69025;53.712;9.680;2023-04-09T15:42:07;21.10;71.80
5964;DHT22;69025;53.712;9.680;2023-04-09T15:44:33;21.10;71.70
5964;DHT22;69025;53.712;9.680;2023-04-09T15:46:59;21.10;71.70
5964;DHT22;69025;53.712;9.680;2023-04-09T15:49:24;21.20;71.80
5964;DHT22;69025;53.712;9.680;2023-04-09T15:51:50;21.20;71.80
5964;DHT22;69025;53.712;9.680;2023-04-09T15:54:15;21.20;71.80
5964;DHT22;69025;53.712;9.680;2023-04-09T15:56:41;21.20;71.70
5964;DHT22;69025;53.712;9.680;2023-04-09T15:59:07;21.20;71.70
5964;DHT22;69025;53.712;9.680;2023-04-09T16:01:33;21.20;71.60
5964;DHT22;69025;53.712;9.680;2023-04-09T16:03:59;21.30;72.50
5964;DHT22;69025;53.712;9.680;2023-04-09T16:06:25;21.30;71.70